Time;durP1;ratioP1;P1;durP2;ratioP2;P2;SDS_P1;SDS_P2;PMS_P1;PMS_P2;Temp;Humidity;BMP_temperature;BMP_pressure;BME280_temperature;BME280_humidity;BME280_pressure;Samples;Min_cycle;Max_cycle;Signal;HPM_P1;HPM_P2
2023/01/06 00:00:41;;;;;;;12.38;2.20;;;10.90;99.90;;;;;;4987689;28;20026;-73
2023/01/06 00:03:08;;;;;;;7.88;1.55;;;10.80;99.90;;;;;;4988907;28;20030;-72
2023/01/06 00:05:34;;;;;;;12.98;1.48;;;10.90;99.90;;;;;;4990272;28;20177;-74
2023/01/06 00:08:00;;;;;;;12.43;1.83;;;10.80;99.90;;;;;;4987597;28;20117;-74
2023/01/06 00:10:26;;;;;;;13.85;1.45;;;10.90;99.90;;;;;;4990393;28;20037;-73
2023/01/06 00:12:52;;;;;;;11.55;1.83;;;10.90;99.90;;;;;;4987158;28;20132;-74
2023/01/06 00:15:18;;;;;;;13.95;1.92;;;11.00;99.90;;;;;;4981860;28;20029;-73
2023/01/06 00:17:44;;;;;;;9.90;1.15;;;11.00;99.90;;;;;;4985384;28;20034;-73
2023/01/06 00:20:11;;;;;;;8.35;1.20;;;11.10;99.90;;;;;;4991920;28;20026;-73
2023/01/06 00:22:39;;;;;;;6.85;1.50;;;11.10;99.90;;;;;;4990956;28;20033;-72
2023/01/06 00:25:05;;;;;;;15.38;2.50;;;11.10;99.90;;;;;;4991090;28;20030;-73
2023/01/06 00:27:31;;;;;;;8.38;1.30;;;11.20;99.90;;;;;;4990176;28;20502;-72
2023/01/06 00:29:57;;;;;;;11.93;2.15;;;11.20;99.90;;;;;;4986896;28;20413;-74
2023/01/06 00:32:23;;;;;;;12.73;2.75;;;11.30;99.90;;;;;;4992079;28;20049;-74
2023/01/06 00:34:49;;;;;;;10.75;1.00;;;11.30;99.90;;;;;;4989304;28;20030;-74
2023/01/06 00:37:14;;;;;;;14.65;1.40;;;11.30;99.90;;;;;;4993084;28;20030;-73
2023/01/06 00:39:40;;;;;;;10.32;1.83;;;11.30;99.90;;;;;;4986172;28;20041;-73
2023/01/06 00:42:06;;;;;;;11.27;1.95;;;11.30;99.90;;;;;;4982267;28;20390;-73
2023/01/06 00:44:37;;;;;;;8.27;0.82;;;11.30;99.90;;;;;;4990377;28;20030;-72
2023/01/06 00:47:04;;;;;;;6.43;1.05;;;11.30;99.90;;;;;;4992391;28;20379;-73
2023/01/06 00:49:30;;;;;;;11.88;1.70;;;11.30;99.90;;;;;;4993273;28;20073;-73
2023/01/06 00:51:56;;;;;;;8.60;1.38;;;11.30;99.90;;;;;;4990118;28;20065;-72
2023/01/06 00:54:22;;;;;;;9.30;1.20;;;11.40;99.90;;;;;;4992635;28;20109;-73
2023/01/06 00:56:51;;;;;;;12.65;2.05;;;11.30;99.90;;;;;;4989109;28;21264;-72
2023/01/06 00:59:21;;;;;;;8.75;1.50;;;11.30;99.90;;;;;;4993799;28;20034;-73
2023/01/06 01:01:49;;;;;;;9.32;1.50;;;11.30;99.90;;;;;;4988987;28;20030;-74
2023/01/06 01:04:15;;;;;;;8.32;1.83;;;11.30;99.90;;;;;;4991424;28;20441;-74
2023/01/06 01:06:43;;;;;;;11.05;1.33;;;11.30;99.90;;;;;;4988940;28;20062;-73
2023/01/06 01:09:13;;;;;;;9.40;1.92;;;11.30;99.90;;;;;;4993258;28;20046;-73
2023/01/06 01:14:23;;;;;;;8.27;1.20;;;11.30;99.90;;;;;;4990009;28;20045;-72
2023/01/06 01:16:48;;;;;;;12.10;1.67;;;11.30;99.90;;;;;;4990351;28;20250;-73
2023/01/06 01:19:15;;;;;;;8.88;1.35;;;11.20;99.90;;;;;;5007588;28;20031;-72
2023/01/06 01:21:59;;;;;;;10.40;1.55;;;11.20;99.90;;;;;;4990949;28;20031;-73
2023/01/06 01:24:25;;;;;;;8.23;1.38;;;11.20;99.90;;;;;;4991174;28;20039;-73
2023/01/06 01:26:51;;;;;;;8.75;2.15;;;11.20;99.90;;;;;;4987279;28;20032;-73
2023/01/06 01:29:17;;;;;;;10.57;1.25;;;11.20;99.90;;;;;;4991925;28;20029;-74
2023/01/06 01:31:44;;;;;;;12.18;1.35;;;11.10;99.90;;;;;;4990463;28;20038;-74
2023/01/06 01:34:12;;;;;;;16.30;1.65;;;11.10;99.90;;;;;;4992341;28;20019;-73
2023/01/06 01:36:40;;;;;;;14.07;2.63;;;11.10;99.90;;;;;;4990813;28;20173;-73
2023/01/06 01:39:05;;;;;;;14.98;2.15;;;11.10;99.90;;;;;;4992162;28;20026;-74
2023/01/06 01:41:31;;;;;;;8.23;2.08;;;11.20;99.90;;;;;;4990030;28;20033;-73
2023/01/06 01:43:59;;;;;;;15.38;2.13;;;11.20;99.90;;;;;;4989625;28;20088;-74
2023/01/06 01:46:42;;;;;;;16.42;2.65;;;11.20;99.90;;;;;;4989832;28;20042;-75
2023/01/06 01:49:13;;;;;;;;;;;11.20;99.90;;;;;;4992326;28;20030;-74
2023/01/06 01:51:42;;;;;;;8.95;1.65;;;11.20;99.90;;;;;;4989984;28;19918;-74
2023/01/06 02:00:36;;;;;;;14.57;1.50;;;11.10;99.90;;;;;;4985256;28;20076;-74
2023/01/06 02:03:04;;;;;;;13.15;2.80;;;11.00;99.90;;;;;;4989609;28;20026;-73
2023/01/06 02:05:32;;;;;;;15.25;2.97;;;11.00;99.90;;;;;;4991042;28;20051;-73
2023/01/06 02:08:04;;;;;;;9.27;2.10;;;11.00;99.90;;;;;;4989337;28;20022;-75
2023/01/06 02:10:30;;;;;;;9.85;1.52;;;11.00;99.90;;;;;;4990873;28;20574;-72
2023/01/06 02:12:58;;;;;;;11.50;1.70;;;11.00;99.90;;;;;;4989085;28;20290;-76
2023/01/06 02:15:28;;;;;;;21.98;2.65;;;11.00;99.90;;;;;;4990507;28;20076;-73
2023/01/06 02:18:13;;;;;;;22.73;1.98;;;11.00;99.90;;;;;;4988761;28;20030;-73
2023/01/06 02:20:48;;;;;;;14.80;1.52;;;11.00;99.90;;;;;;4987138;28;20035;-76
2023/01/06 02:23:22;;;;;;;11.63;2.20;;;11.00;99.90;;;;;;4989871;28;20033;-76
2023/01/06 02:29:38;;;;;;;20.50;3.00;;;10.90;99.90;;;;;;4990410;28;20037;-76
2023/01/06 02:32:39;;;;;;;11.13;2.42;;;10.90;99.90;;;;;;4990660;28;20041;-75
2023/01/06 02:35:11;;;;;;;9.50;1.90;;;10.90;99.90;;;;;;4983792;28;20076;-73
2023/01/06 02:38:01;;;;;;;15.82;1.90;;;10.80;99.90;;;;;;5003138;28;20022;-74
2023/01/06 02:40:44;;;;;;;10.10;1.77;;;10.90;99.90;;;;;;4986310;28;20041;-76
2023/01/06 02:43:22;;;;;;;7.85;1.27;;;10.80;99.90;;;;;;4989757;28;20064;-77
2023/01/06 02:46:08;;;;;;;12.68;2.50;;;10.80;99.90;;;;;;4989668;28;20030;-80
2023/01/06 02:48:55;;;;;;;11.75;1.27;;;10.90;99.90;;;;;;4987352;28;20057;-77
2023/01/06 02:51:29;;;;;;;6.72;1.35;;;10.80;99.90;;;;;;4990579;28;20134;-78
2023/01/06 02:54:03;;;;;;;8.73;1.50;;;10.90;99.90;;;;;;4990163;28;20030;-78
2023/01/06 02:56:36;;;;;;;12.27;2.78;;;10.90;99.90;;;;;;4986689;28;20093;-76
2023/01/06 02:59:07;;;;;;;13.25;1.50;;;10.90;99.90;;;;;;4978054;28;20168;-75
2023/01/06 03:01:40;;;;;;;17.05;2.03;;;10.90;99.90;;;;;;4982858;28;20031;-74
2023/01/06 03:04:13;;;;;;;10.57;2.00;;;10.90;99.90;;;;;;4981027;28;20506;-74
2023/01/06 03:06:43;;;;;;;12.38;1.60;;;10.90;99.90;;;;;;4984562;28;20042;-74
2023/01/06 03:09:14;;;;;;;16.42;2.00;;;10.90;99.90;;;;;;4989854;28;20358;-74
2023/01/06 03:11:42;;;;;;;18.33;2.28;;;11.00;99.90;;;;;;4984915;28;20053;-73
2023/01/06 03:14:32;;;;;;;18.50;2.67;;;11.00;99.90;;;;;;4988170;28;20048;-72
2023/01/06 03:16:59;;;;;;;14.82;2.75;;;10.90;99.90;;;;;;4987390;28;20022;-73
2023/01/06 03:19:25;;;;;;;16.40;1.98;;;10.90;99.90;;;;;;4989677;28;20088;-73
2023/01/06 03:21:51;;;;;;;17.83;2.50;;;10.90;99.90;;;;;;4981852;28;20391;-73
2023/01/06 03:24:17;;;;;;;16.58;2.38;;;10.90;99.90;;;;;;4987304;28;20101;-73
2023/01/06 03:26:45;;;;;;;19.45;2.75;;;10.80;99.90;;;;;;4988635;28;20503;-73
2023/01/06 03:29:14;;;;;;;13.80;2.25;;;10.80;99.90;;;;;;4989076;28;20026;-73
2023/01/06 03:31:46;;;;;;;19.45;3.85;;;10.70;99.90;;;;;;4979613;28;20070;-73
2023/01/06 03:34:39;;;;;;;15.82;2.05;;;10.60;99.90;;;;;;4990054;28;20057;-73
2023/01/06 03:37:07;;;;;;;18.30;2.20;;;10.60;99.90;;;;;;4984790;28;20030;-73
2023/01/06 03:40:05;;;;;;;18.88;2.75;;;10.50;99.90;;;;;;4990328;28;20062;-74
2023/01/06 03:45:51;;;;;;;21.08;3.38;;;10.40;99.90;;;;;;4989495;28;20040;-73
2023/01/06 03:48:31;;;;;;;24.55;3.05;;;10.40;99.90;;;;;;4990007;28;20041;-73
2023/01/06 03:51:04;;;;;;;21.95;2.88;;;10.30;99.90;;;;;;4988156;28;20122;-73
2023/01/06 03:53:47;;;;;;;24.92;3.30;;;10.30;99.90;;;;;;4992092;28;20038;-73
2023/01/06 03:56:16;;;;;;;20.45;3.97;;;10.30;99.90;;;;;;4989942;28;20026;-74
2023/01/06 03:58:45;;;;;;;16.75;2.72;;;10.30;99.90;;;;;;4991135;28;20026;-73
2023/01/06 04:01:12;;;;;;;27.83;4.30;;;10.30;99.90;;;;;;4994163;28;20022;-73
2023/01/06 04:03:37;;;;;;;20.55;3.50;;;10.40;99.90;;;;;;4991166;28;20026;-72
2023/01/06 04:06:03;;;;;;;18.13;2.97;;;10.40;99.90;;;;;;4988512;28;20517;-72
2023/01/06 04:08:29;;;;;;;4.78;0.88;;;10.30;99.90;;;;;;4992030;28;20492;-73
2023/01/06 04:10:55;;;;;;;4.20;0.40;;;10.20;99.90;;;;;;5003669;28;20034;-72
2023/01/06 04:13:20;;;;;;;4.88;0.85;;;10.10;99.90;;;;;;4992796;28;20036;-72
2023/01/06 04:15:46;;;;;;;4.88;0.65;;;10.00;99.90;;;;;;4989128;28;20390;-71
2023/01/06 04:18:12;;;;;;;4.00;0.30;;;9.90;99.90;;;;;;4993194;28;20035;-73
2023/01/06 04:20:38;;;;;;;0.80;0.20;;;9.90;99.90;;;;;;4991681;28;20125;-71
2023/01/06 04:23:04;;;;;;;0.47;0.10;;;9.80;99.90;;;;;;4992028;28;20133;-72
2023/01/06 04:25:29;;;;;;;0.00;0.00;;;9.80;99.90;;;;;;4994397;28;20042;-72
2023/01/06 04:27:55;;;;;;;0.85;0.10;;;9.70;99.90;;;;;;4987657;28;20105;-71
2023/01/06 04:30:21;;;;;;;1.15;0.00;;;9.60;99.90;;;;;;4993900;28;20042;-72
2023/01/06 04:32:46;;;;;;;0.65;0.25;;;9.60;99.90;;;;;;4990856;28;20034;-73
2023/01/06 04:35:12;;;;;;;0.52;0.10;;;9.50;99.90;;;;;;4993911;28;20490;-73
2023/01/06 04:37:38;;;;;;;0.88;0.00;;;9.30;99.90;;;;;;4990091;28;20026;-73
2023/01/06 04:40:06;;;;;;;0.10;0.00;;;9.20;99.90;;;;;;4993585;28;20045;-73
2023/01/06 04:43:02;;;;;;;0.00;0.00;;;9.00;99.90;;;;;;4991370;28;20045;-73
2023/01/06 04:45:17;;;;;;;0.20;0.00;;;8.90;99.90;;;;;;4992943;28;20037;-74
2023/01/06 04:47:43;;;;;;;0.77;0.00;;;8.80;99.90;;;;;;4988864;28;20030;-73
2023/01/06 04:50:09;;;;;;;1.23;0.10;;;8.80;99.90;;;;;;4992865;28;20026;-73
2023/01/06 04:52:35;;;;;;;1.00;0.20;;;8.70;99.90;;;;;;4992269;28;20030;-73
2023/01/06 04:55:01;;;;;;;0.68;0.10;;;8.50;99.90;;;;;;4989473;28;20478;-73
2023/01/06 04:57:26;;;;;;;0.98;0.00;;;8.50;99.90;;;;;;4990729;28;20041;-73
2023/01/06 04:59:52;;;;;;;9.13;0.40;;;8.40;99.90;;;;;;4991481;28;20034;-72
2023/01/06 05:02:18;;;;;;;0.03;0.00;;;8.30;99.90;;;;;;4992517;28;20022;-73
2023/01/06 05:04:43;;;;;;;0.52;0.03;;;8.20;99.90;;;;;;4990331;28;20032;-73
2023/01/06 05:07:09;;;;;;;0.90;0.00;;;8.10;99.90;;;;;;4986716;28;20031;-73
2023/01/06 05:09:35;;;;;;;0.63;0.10;;;8.00;99.90;;;;;;4993005;28;20029;-73
2023/01/06 05:12:00;;;;;;;0.45;0.10;;;7.90;99.90;;;;;;4990060;28;20552;-73
2023/01/06 05:14:26;;;;;;;0.00;0.00;;;7.90;99.90;;;;;;4993166;28;20033;-73
2023/01/06 05:16:52;;;;;;;0.68;0.20;;;7.80;99.90;;;;;;4988976;28;20035;-73
2023/01/06 05:19:17;;;;;;;0.10;0.00;;;7.80;99.90;;;;;;4992590;28;20457;-73
2023/01/06 05:21:43;;;;;;;3.50;0.10;;;7.60;99.90;;;;;;4990142;28;20034;-73
2023/01/06 05:24:09;;;;;;;0.47;0.10;;;7.60;99.90;;;;;;4992464;28;20035;-72
2023/01/06 05:26:35;;;;;;;0.32;0.00;;;7.50;99.90;;;;;;4991043;28;20025;-73
2023/01/06 05:29:00;;;;;;;1.15;0.20;;;7.40;99.90;;;;;;4990487;28;20026;-73
2023/01/06 05:31:26;;;;;;;2.80;0.20;;;7.40;99.90;;;;;;4992869;28;20070;-73
2023/01/06 05:33:52;;;;;;;0.15;0.00;;;7.50;99.90;;;;;;4990365;28;20026;-72
2023/01/06 05:36:18;;;;;;;0.55;0.03;;;7.40;99.90;;;;;;4992679;28;20153;-74
2023/01/06 05:38:44;;;;;;;3.80;0.20;;;7.30;99.90;;;;;;4990271;28;20110;-73
2023/01/06 05:41:10;;;;;;;0.85;0.45;;;7.30;99.90;;;;;;4991520;28;20381;-73
2023/01/06 05:43:36;;;;;;;3.55;0.30;;;7.20;99.90;;;;;;4990705;28;20558;-73
2023/01/06 05:46:07;;;;;;;1.50;0.13;;;7.10;99.90;;;;;;4992124;28;20041;-73
2023/01/06 05:48:34;;;;;;;0.57;0.20;;;7.10;99.90;;;;;;4992465;28;20497;-73
2023/01/06 05:51:08;;;;;;;0.65;0.10;;;6.90;99.90;;;;;;4990078;28;20038;-73
2023/01/06 05:53:35;;;;;;;0.38;0.00;;;6.80;99.90;;;;;;4988544;28;20053;-73
2023/01/06 05:56:03;;;;;;;4.95;0.17;;;6.70;99.90;;;;;;4990194;28;20058;-72
2023/01/06 05:58:32;;;;;;;1.65;0.10;;;6.60;99.90;;;;;;4992034;28;20026;-73
2023/01/06 06:01:01;;;;;;;0.20;0.10;;;6.70;99.90;;;;;;4990536;28;20030;-73
2023/01/06 06:03:27;;;;;;;0.60;0.00;;;6.70;99.90;;;;;;4990800;28;20030;-73
2023/01/06 06:05:53;;;;;;;2.08;0.20;;;6.70;99.90;;;;;;4986711;28;20125;-73
2023/01/06 06:08:19;;;;;;;0.63;0.30;;;6.60;99.90;;;;;;4991043;28;20030;-73
2023/01/06 06:10:44;;;;;;;0.95;0.17;;;6.60;99.90;;;;;;4988951;28;20085;-73
2023/01/06 06:13:10;;;;;;;1.25;0.20;;;6.70;99.90;;;;;;4990387;28;20054;-73
2023/01/06 06:15:36;;;;;;;2.38;0.30;;;6.70;99.90;;;;;;4990056;28;20022;-73
2023/01/06 06:18:02;;;;;;;2.72;0.82;;;6.60;99.90;;;;;;4986600;28;20026;-73
2023/01/06 06:20:29;;;;;;;3.47;0.75;;;6.60;99.90;;;;;;4990801;28;20120;-73
2023/01/06 06:22:54;;;;;;;0.57;0.32;;;6.50;99.90;;;;;;4988547;28;20030;-73
2023/01/06 06:25:20;;;;;;;0.75;0.10;;;6.50;99.90;;;;;;4990595;28;20047;-73
2023/01/06 06:27:46;;;;;;;1.15;0.20;;;6.50;99.90;;;;;;4988789;28;20391;-72
2023/01/06 06:30:12;;;;;;;0.50;0.20;;;6.60;99.90;;;;;;4990268;28;20046;-72
2023/01/06 06:32:38;;;;;;;1.45;0.10;;;6.70;99.90;;;;;;4989268;28;20046;-73
2023/01/06 06:35:04;;;;;;;0.80;0.22;;;6.90;99.90;;;;;;4990598;28;20460;-72
2023/01/06 06:37:30;;;;;;;2.05;0.10;;;7.00;99.90;;;;;;4990822;28;20037;-72
2023/01/06 06:39:55;;;;;;;4.80;0.32;;;7.10;99.90;;;;;;4989072;28;20026;-73
2023/01/06 06:42:21;;;;;;;5.57;0.90;;;7.10;99.90;;;;;;4990427;28;20034;-72
2023/01/06 06:44:47;;;;;;;0.90;0.70;;;7.20;99.90;;;;;;4989162;28;20022;-73
2023/01/06 06:47:13;;;;;;;2.95;0.20;;;7.20;99.90;;;;;;4989660;28;20505;-72
2023/01/06 06:49:39;;;;;;;1.85;0.17;;;7.20;99.90;;;;;;4988749;28;20038;-71
2023/01/06 06:52:04;;;;;;;2.88;0.60;;;7.20;99.90;;;;;;4990765;28;20030;-73
2023/01/06 06:54:30;;;;;;;1.27;0.28;;;7.20;99.90;;;;;;4990727;28;20399;-73
2023/01/06 06:56:56;;;;;;;1.85;0.30;;;7.30;99.90;;;;;;4988778;28;20120;-73
2023/01/06 06:59:21;;;;;;;1.98;0.73;;;7.20;99.90;;;;;;4989786;28;20085;-73
2023/01/06 07:01:47;;;;;;;1.52;0.30;;;7.20;99.90;;;;;;4989019;28;20113;-73
2023/01/06 07:04:13;;;;;;;3.03;0.65;;;7.20;99.90;;;;;;4988375;28;20500;-73
2023/01/06 07:06:39;;;;;;;2.28;0.52;;;7.20;99.90;;;;;;5003871;28;20577;-72
2023/01/06 07:09:05;;;;;;;2.20;0.45;;;7.20;99.90;;;;;;4990914;28;20037;-72
2023/01/06 07:11:30;;;;;;;5.50;0.90;;;7.20;99.90;;;;;;4987322;28;20042;-72
2023/01/06 07:13:56;;;;;;;3.72;0.50;;;7.20;99.90;;;;;;4988949;28;20466;-72
2023/01/06 07:16:24;;;;;;;3.65;0.82;;;7.20;99.90;;;;;;4989553;28;20034;-73
2023/01/06 07:18:50;;;;;;;1.95;0.52;;;7.30;99.90;;;;;;4988820;28;20105;-71
2023/01/06 07:21:15;;;;;;;5.43;0.73;;;7.20;99.90;;;;;;4989983;28;20064;-73
2023/01/06 07:23:41;;;;;;;2.90;1.10;;;7.00;99.90;;;;;;4988586;28;20030;-73
2023/01/06 07:26:08;;;;;;;4.45;0.70;;;7.00;99.90;;;;;;4989861;28;20030;-73
2023/01/06 07:28:33;;;;;;;7.18;0.73;;;7.00;99.90;;;;;;4981820;28;20156;-73
2023/01/06 07:31:00;;;;;;;5.65;1.17;;;7.00;99.90;;;;;;4988747;28;20117;-73
2023/01/06 07:33:26;;;;;;;8.40;0.82;;;7.00;99.90;;;;;;4990032;28;20029;-73
2023/01/06 07:35:53;;;;;;;2.13;0.70;;;7.10;99.90;;;;;;4988411;28;20038;-73
2023/01/06 07:38:19;;;;;;;8.90;1.30;;;7.20;99.90;;;;;;4989836;28;20025;-73
2023/01/06 07:40:44;;;;;;;9.20;1.85;;;7.30;99.90;;;;;;4985159;28;20386;-73
2023/01/06 07:43:10;;;;;;;8.23;1.02;;;7.10;99.90;;;;;;4984749;28;20030;-68
2023/01/06 07:45:37;;;;;;;6.38;1.67;;;7.10;99.90;;;;;;4989387;28;20038;-73
2023/01/06 07:48:03;;;;;;;7.80;1.00;;;7.00;99.90;;;;;;4989098;28;20038;-73
2023/01/06 07:50:31;;;;;;;7.13;1.20;;;7.00;99.90;;;;;;4988582;28;20038;-73
2023/01/06 07:52:58;;;;;;;6.88;0.98;;;7.00;99.90;;;;;;4987029;28;20061;-73
2023/01/06 07:55:24;;;;;;;12.85;2.30;;;7.10;99.90;;;;;;4989019;28;20041;-72
2023/01/06 07:57:50;;;;;;;3.55;0.45;;;7.00;99.90;;;;;;4987056;28;20026;-72
2023/01/06 08:00:16;;;;;;;3.05;0.55;;;6.90;99.90;;;;;;4988462;28;20049;-73
2023/01/06 08:02:42;;;;;;;5.25;0.95;;;6.80;99.90;;;;;;4986433;28;20050;-74
2023/01/06 08:05:08;;;;;;;4.43;0.80;;;6.70;99.90;;;;;;4988952;28;20155;-73
2023/01/06 08:07:34;;;;;;;3.88;1.00;;;6.70;99.90;;;;;;4988652;28;20062;-74
2023/01/06 08:09:59;;;;;;;3.80;0.70;;;6.90;99.90;;;;;;4988143;28;20042;-73
2023/01/06 08:12:25;;;;;;;7.60;1.10;;;7.10;99.90;;;;;;4984898;28;20058;-73
2023/01/06 08:14:51;;;;;;;5.60;0.82;;;7.20;99.90;;;;;;4987929;28;20113;-72
2023/01/06 08:17:16;;;;;;;7.18;0.95;;;7.40;99.90;;;;;;4989173;28;20109;-73
2023/01/06 08:19:42;;;;;;;3.63;0.82;;;7.50;99.90;;;;;;4982451;28;20033;-74
2023/01/06 08:22:08;;;;;;;5.30;0.60;;;7.40;99.90;;;;;;4988115;28;20030;-74
2023/01/06 08:24:34;;;;;;;5.25;0.65;;;7.50;99.90;;;;;;4987839;28;20037;-71
2023/01/06 08:27:00;;;;;;;3.88;1.00;;;7.60;99.90;;;;;;4987328;28;20045;-72
2023/01/06 08:29:25;;;;;;;8.20;0.88;;;7.60;99.90;;;;;;4987196;28;20113;-73
2023/01/06 08:31:52;;;;;;;7.68;1.02;;;7.60;99.90;;;;;;4985042;28;20500;-74
2023/01/06 08:34:17;;;;;;;3.42;0.85;;;7.60;99.90;;;;;;4989113;28;20034;-73
2023/01/06 08:36:44;;;;;;;5.18;0.63;;;7.60;99.90;;;;;;4985204;28;20045;-72
2023/01/06 08:39:11;;;;;;;1.73;0.75;;;7.60;99.90;;;;;;4989435;28;20110;-73
2023/01/06 08:41:39;;;;;;;4.53;0.75;;;7.60;99.90;;;;;;4984693;28;20110;-72
2023/01/06 08:44:05;;;;;;;7.63;0.85;;;7.60;99.90;;;;;;4992432;28;20580;-73
2023/01/06 08:46:30;;;;;;;4.18;1.25;;;7.70;99.90;;;;;;4990141;28;20038;-73
2023/01/06 08:48:56;;;;;;;7.32;0.63;;;7.60;99.90;;;;;;4991007;28;20444;-73
2023/01/06 08:51:25;;;;;;;3.47;1.00;;;7.70;99.90;;;;;;4991794;28;20573;-73
2023/01/06 08:53:52;;;;;;;7.70;2.20;;;7.70;99.90;;;;;;4990681;28;20382;-73
2023/01/06 08:56:23;;;;;;;3.47;1.10;;;7.70;99.90;;;;;;4992007;28;20117;-74
2023/01/06 08:59:01;;;;;;;3.60;1.60;;;7.60;99.90;;;;;;4981359;28;20125;-72
2023/01/06 09:01:30;;;;;;;2.75;0.90;;;7.70;99.90;;;;;;4988255;28;20045;-74
2023/01/06 09:03:58;;;;;;;8.43;1.58;;;7.70;99.90;;;;;;4989049;28;20167;-73
2023/01/06 09:06:24;;;;;;;13.05;1.67;;;7.70;99.90;;;;;;4990479;28;20050;-73
2023/01/06 09:08:51;;;;;;;9.88;0.85;;;7.80;99.90;;;;;;4989498;28;20519;-72
2023/01/06 09:11:17;;;;;;;7.97;1.35;;;7.80;99.90;;;;;;4990411;28;20070;-74
2023/01/06 09:13:44;;;;;;;9.55;2.25;;;7.90;99.90;;;;;;4989624;28;20018;-72
2023/01/06 09:16:10;;;;;;;6.38;2.40;;;8.00;99.90;;;;;;5005515;28;20027;-73
2023/01/06 09:18:37;;;;;;;19.15;8.82;;;8.10;99.90;;;;;;4993081;28;20506;-72
2023/01/06 09:21:03;;;;;;;12.95;1.95;;;8.20;99.90;;;;;;4990342;28;20026;-73
2023/01/06 09:23:30;;;;;;;6.95;2.28;;;8.20;99.90;;;;;;4985354;28;20034;-73
2023/01/06 09:25:56;;;;;;;13.68;3.17;;;8.20;99.90;;;;;;4983893;28;20030;-73
2023/01/06 09:28:23;;;;;;;6.72;1.73;;;8.30;99.90;;;;;;4991145;28;20019;-73
2023/01/06 09:30:49;;;;;;;8.10;1.65;;;8.40;99.90;;;;;;4990404;28;20371;-75
2023/01/06 09:33:15;;;;;;;8.80;2.15;;;8.40;99.90;;;;;;4990662;28;20466;-75
2023/01/06 09:35:45;;;;;;;11.43;3.45;;;8.30;99.90;;;;;;4989800;28;20038;-75
2023/01/06 09:38:12;;;;;;;4.30;1.63;;;8.40;99.90;;;;;;4992570;28;20092;-74
2023/01/06 09:41:03;;;;;;;7.13;1.52;;;8.40;99.90;;;;;;4979077;28;20915;-72
2023/01/06 09:43:49;;;;;;;7.63;1.63;;;8.40;99.90;;;;;;4981085;28;20041;-73
2023/01/06 09:46:22;;;;;;;6.68;1.73;;;8.40;99.90;;;;;;4985862;28;20033;-73
2023/01/06 09:49:00;;;;;;;8.75;3.25;;;8.50;99.90;;;;;;4988843;28;20160;-74
2023/01/06 09:51:34;;;;;;;7.47;1.10;;;8.50;99.90;;;;;;4985738;28;20588;-80
2023/01/06 09:54:13;;;;;;;3.50;1.20;;;8.50;99.90;;;;;;4986199;28;20018;-73
2023/01/06 09:56:42;;;;;;;14.23;3.25;;;8.40;99.90;;;;;;4984790;28;20037;-74
2023/01/06 09:59:20;;;;;;;4.97;0.90;;;8.40;99.90;;;;;;4988369;28;20022;-73
2023/01/06 10:01:48;;;;;;;29.70;15.68;;;8.50;99.90;;;;;;4986889;28;20027;-75
2023/01/06 10:04:20;;;;;;;12.00;5.50;;;8.60;99.90;;;;;;4990048;28;20439;-75
2023/01/06 10:06:58;;;;;;;;;;;8.60;99.90;;;;;;4975470;28;20124;-73
2023/01/06 10:09:45;;;;;;;6.97;3.33;;;8.70;99.90;;;;;;4992820;28;19938;-74
2023/01/06 10:12:45;;;;;;;7.82;4.00;;;8.80;99.90;;;;;;4986951;28;20038;-75
2023/01/06 10:15:28;;;;;;;7.78;1.33;;;8.90;99.90;;;;;;4987420;28;20110;-74
2023/01/06 10:18:43;;;;;;;5.88;0.57;;;8.90;99.90;;;;;;4984773;28;20045;-75
2023/01/06 10:21:25;;;;;;;15.48;4.05;;;9.00;99.90;;;;;;4965929;28;20482;-78
2023/01/06 10:23:54;;;;;;;;;;;9.10;99.90;;;;;;4986562;28;20575;-76
2023/01/06 10:26:44;;;;;;;4.93;2.55;;;9.10;99.90;;;;;;4987417;28;19932;-76
2023/01/06 10:29:16;;;;;;;8.98;3.15;;;9.20;99.90;;;;;;4983073;28;20034;-76
2023/01/06 10:31:45;;;;;;;2.35;0.70;;;9.30;99.90;;;;;;4981779;28;20034;-74
2023/01/06 10:34:26;;;;;;;6.47;1.25;;;9.30;99.90;;;;;;4986509;28;20022;-75
2023/01/06 10:37:08;;;;;;;6.95;1.10;;;9.30;99.90;;;;;;4987304;28;20030;-76
2023/01/06 10:39:35;;;;;;;;;;;9.40;99.90;;;;;;4984556;28;20390;-77
2023/01/06 10:45:12;;;;;;;10.82;5.07;;;9.40;99.90;;;;;;4981737;28;20411;-75
2023/01/06 10:47:41;;;;;;;11.35;2.83;;;9.50;99.90;;;;;;4983434;28;20022;-73
2023/01/06 10:50:14;;;;;;;6.60;1.13;;;9.60;99.90;;;;;;4985050;28;20038;-74
2023/01/06 10:52:41;;;;;;;10.32;1.48;;;9.60;99.90;;;;;;4981656;28;20085;-75
2023/01/06 10:55:12;;;;;;;14.63;4.10;;;9.60;99.90;;;;;;4987565;28;20346;-75
2023/01/06 10:57:40;;;;;;;11.43;2.58;;;9.70;99.90;;;;;;4974285;28;20454;-74
2023/01/06 11:00:21;;;;;;;8.07;0.88;;;9.80;99.90;;;;;;4983672;28;20467;-74
2023/01/06 11:02:49;;;;;;;7.20;0.60;;;9.80;99.90;;;;;;4983730;28;20038;-75
2023/01/06 11:05:18;;;;;;;5.68;1.70;;;9.80;99.90;;;;;;4987433;28;20043;-75
2023/01/06 11:07:55;;;;;;;3.30;1.27;;;9.90;99.90;;;;;;4985226;28;20030;-73
2023/01/06 11:10:40;;;;;;;9.35;0.80;;;10.00;99.90;;;;;;4983899;28;20050;-74
2023/01/06 11:13:27;;;;;;;7.03;1.00;;;10.10;99.90;;;;;;4985435;28;20034;-76
2023/01/06 11:15:54;;;;;;;3.42;0.77;;;10.10;99.90;;;;;;4986090;28;20078;-75
2023/01/06 11:18:31;;;;;;;15.48;3.65;;;10.30;99.90;;;;;;4989486;28;20505;-75
2023/01/06 11:21:01;;;;;;;5.78;1.58;;;10.60;99.90;;;;;;4985283;28;20037;-76
2023/01/06 11:23:28;;;;;;;5.35;0.93;;;10.80;99.90;;;;;;4986878;28;20025;-74
2023/01/06 11:26:06;;;;;;;7.03;1.98;;;11.00;99.90;;;;;;4992890;28;20034;-74
2023/01/06 11:28:31;;;;;;;5.85;0.65;;;11.20;99.90;;;;;;4993865;28;20034;-75
2023/01/06 11:31:05;;;;;;;6.90;0.93;;;11.40;99.90;;;;;;4993211;28;20687;-74
2023/01/06 11:33:35;;;;;;;6.57;0.85;;;11.60;99.90;;;;;;4990283;28;20038;-74
2023/01/06 11:36:10;;;;;;;6.28;1.00;;;11.80;99.90;;;;;;4987362;28;20037;-74
2023/01/06 11:38:45;;;;;;;4.75;0.98;;;11.80;99.90;;;;;;4983615;28;20030;-74
2023/01/06 11:41:12;;;;;;;7.75;1.10;;;11.70;99.90;;;;;;4982426;28;20058;-75
2023/01/06 11:43:44;;;;;;;7.82;1.00;;;11.60;99.90;;;;;;4980185;28;20375;-74
2023/01/06 11:46:12;;;;;;;7.82;0.63;;;11.80;99.90;;;;;;4987215;28;20039;-74
2023/01/06 11:48:46;;;;;;;5.13;0.63;;;11.90;99.90;;;;;;4987637;28;20495;-71
2023/01/06 11:51:12;;;;;;;12.18;1.20;;;12.10;99.90;;;;;;4982504;28;20042;-73
2023/01/06 11:53:39;;;;;;;4.88;0.65;;;12.20;99.90;;;;;;4990287;28;20513;-74
2023/01/06 11:56:13;;;;;;;6.38;0.80;;;12.20;99.90;;;;;;4986007;28;20109;-74
2023/01/06 11:58:54;;;;;;;6.85;0.70;;;12.50;99.90;;;;;;4985930;28;20023;-74
2023/01/06 12:01:45;;;;;;;5.72;0.70;;;13.00;99.90;;;;;;4989852;28;20030;-74
2023/01/06 12:04:17;;;;;;;9.40;1.98;;;13.30;99.90;;;;;;4982849;28;20056;-74
2023/01/06 12:06:44;;;;;;;14.00;3.00;;;13.30;99.90;;;;;;4983200;28;20057;-74
2023/01/06 12:09:09;;;;;;;6.93;1.80;;;12.80;99.90;;;;;;4987650;28;20475;-75
2023/01/06 12:11:55;;;;;;;4.13;0.93;;;13.10;99.90;;;;;;4983632;28;20053;-75
2023/01/06 12:14:24;;;;;;;5.85;1.05;;;13.30;99.90;;;;;;4983340;28;20376;-75
2023/01/06 12:17:09;;;;;;;5.70;1.00;;;12.90;99.90;;;;;;4986754;28;20018;-74
2023/01/06 12:19:56;;;;;;;7.25;0.80;;;12.50;99.90;;;;;;4989190;28;20039;-74
2023/01/06 12:22:55;;;;;;;8.88;2.75;;;12.30;99.90;;;;;;4982735;28;20126;-74
2023/01/06 12:25:26;;;;;;;7.85;0.90;;;12.20;99.90;;;;;;4986810;28;20038;-75
2023/01/06 12:28:10;;;;;;;5.82;0.98;;;12.00;99.90;;;;;;4983459;28;20061;-76
2023/01/06 12:30:46;;;;;;;5.47;0.77;;;11.90;99.90;;;;;;4986405;28;20041;-74
2023/01/06 12:33:14;;;;;;;8.38;1.80;;;11.80;99.90;;;;;;4989112;28;20386;-76
2023/01/06 12:35:42;;;;;;;2.72;0.60;;;11.90;99.90;;;;;;4983731;28;20034;-75
2023/01/06 12:38:45;;;;;;;9.52;1.25;;;11.90;99.90;;;;;;4985820;28;20026;-74
2023/01/06 12:41:22;;;;;;;7.35;3.03;;;11.80;99.90;;;;;;4982404;28;20066;-77
2023/01/06 12:44:01;;;;;;;8.10;1.30;;;11.70;99.90;;;;;;4988040;28;20038;-75
2023/01/06 12:46:37;;;;;;;8.15;1.48;;;11.60;99.90;;;;;;4984518;28;20027;-75
2023/01/06 12:49:12;;;;;;;4.00;0.60;;;11.60;99.90;;;;;;4983598;28;20086;-75
2023/01/06 12:51:45;;;;;;;5.82;1.25;;;11.50;99.90;;;;;;4989643;28;20110;-74
2023/01/06 12:54:32;;;;;;;8.93;4.15;;;11.50;99.90;;;;;;4983755;28;20027;-74
2023/01/06 12:57:35;;;;;;;9.90;2.95;;;11.40;99.90;;;;;;4985224;28;20825;-74
2023/01/06 13:00:09;;;;;;;;;;;11.50;99.90;;;;;;4988767;28;20028;-74
2023/01/06 13:02:54;;;;;;;6.10;0.93;;;11.60;99.90;;;;;;4983321;28;19917;-73
2023/01/06 13:05:32;;;;;;;7.90;1.40;;;11.60;99.90;;;;;;4991096;28;20097;-73
2023/01/06 13:08:09;;;;;;;4.20;0.70;;;11.60;99.90;;;;;;4985882;28;20034;-75
2023/01/06 13:10:50;;;;;;;6.97;1.95;;;11.70;99.90;;;;;;4989521;28;20026;-75
2023/01/06 13:13:27;;;;;;;8.75;2.17;;;11.70;99.90;;;;;;4985977;28;20437;-74
2023/01/06 13:15:56;;;;;;;3.33;0.63;;;11.80;99.90;;;;;;4983858;28;20034;-74
2023/01/06 13:18:29;;;;;;;6.35;0.77;;;11.80;99.90;;;;;;4979466;28;20124;-75
2023/01/06 13:21:03;;;;;;;5.30;0.40;;;11.80;99.90;;;;;;4990503;28;20038;-72
2023/01/06 13:23:35;;;;;;;5.03;0.80;;;11.70;99.90;;;;;;4990831;28;20026;-74
2023/01/06 13:26:19;;;;;;;7.15;0.50;;;11.70;99.90;;;;;;4983147;28;20101;-75